createdAt,value
2016-04-20T08:27:30.641Z,4008
2016-04-20T08:28:32.769Z,5324
2016-04-20T08:29:33.286Z,4236
2016-04-20T08:30:33.289Z,3600
2016-04-20T08:31:33.308Z,3468
2016-04-20T08:32:33.326Z,3428
2016-04-20T08:33:33.344Z,3424
2016-04-20T08:34:33.379Z,3464
2016-04-20T08:35:33.396Z,3508
2016-04-20T08:36:33.430Z,3504
2016-04-20T08:37:33.449Z,3668
2016-04-20T08:38:33.467Z,3712
2016-04-20T08:39:33.485Z,3840
2016-04-20T08:40:33.348Z,4228
2016-04-20T08:41:33.538Z,4304
2016-04-20T08:42:33.556Z,5000
2016-04-20T08:43:33.590Z,4432
2016-04-20T08:44:33.624Z,4276
2016-04-20T08:45:33.643Z,4604
2016-04-20T08:46:33.629Z,4776
2016-04-20T08:47:33.664Z,4708
2016-04-20T08:48:33.698Z,4276
2016-04-20T08:49:33.732Z,4148
2016-04-20T08:50:33.750Z,3968
2016-04-20T08:51:33.784Z,4200
2016-04-20T08:52:33.802Z,3932
2016-04-20T08:53:33.820Z,3824
2016-04-20T08:54:33.854Z,3968
2016-04-20T08:55:33.856Z,3888
2016-04-20T08:56:33.891Z,3892
2016-04-20T08:57:33.908Z,3684
2016-04-20T08:58:33.928Z,3712
2016-04-20T08:59:33.961Z,3660
2016-04-20T09:00:33.980Z,3620
2016-04-20T09:01:34.014Z,3484
2016-04-20T09:02:34.032Z,3528
2016-04-20T09:03:34.050Z,3512
2016-04-20T09:04:34.068Z,3416
2016-04-20T09:05:33.946Z,3408
2016-04-20T09:06:34.104Z,3424
2016-04-20T09:07:34.155Z,3344
2016-04-20T09:08:34.188Z,3292
2016-04-20T09:09:34.191Z,3256
2016-04-20T09:10:34.241Z,3244
2016-04-20T09:11:34.244Z,3216
2016-04-20T09:12:34.262Z,3188
2016-04-20T09:13:34.296Z,3180
2016-04-20T09:14:34.315Z,3220
2016-04-20T09:15:34.379Z,3252
2016-04-20T09:16:34.367Z,3236
2016-04-20T09:17:34.384Z,3236
2016-04-20T09:18:34.418Z,3224
2016-04-20T09:19:34.437Z,3076
2016-04-20T09:20:34.471Z,3100
2016-04-20T09:21:35.098Z,2712
2016-04-20T09:22:34.413Z,3088
2016-04-20T09:23:34.525Z,3088
2016-04-20T09:24:34.559Z,3188
2016-04-20T09:25:34.577Z,3204
2016-04-20T09:26:34.611Z,3176
2016-04-20T09:27:34.629Z,3176
2016-04-20T09:28:34.648Z,3156
2016-04-20T09:29:34.682Z,3120
2016-04-20T09:30:34.779Z,3092
2016-04-20T09:31:34.734Z,3088
2016-04-20T09:32:34.768Z,3076
2016-04-20T09:33:34.786Z,3088
2016-04-20T09:34:34.820Z,3112
2016-04-20T09:35:34.807Z,3176
2016-04-20T09:36:34.872Z,3344
2016-04-20T09:37:34.875Z,3428
2016-04-20T09:38:34.892Z,3460
2016-04-20T09:39:34.943Z,3556
2016-04-20T09:40:34.945Z,3608
2016-04-20T09:41:34.979Z,3680
2016-04-20T09:42:35.014Z,3784
2016-04-20T09:43:35.016Z,3728
2016-04-20T09:44:35.034Z,3532
2016-04-20T09:45:35.068Z,3504
2016-04-20T09:46:35.102Z,3492
2016-04-20T09:47:35.120Z,3480
2016-04-20T09:48:35.139Z,3356
2016-04-20T09:49:35.173Z,3356
2016-04-20T09:50:35.191Z,3372
2016-04-20T09:51:35.225Z,3316
2016-04-20T09:52:35.258Z,3248
2016-04-20T09:53:35.277Z,3212
2016-04-20T09:54:35.327Z,3192
2016-04-20T09:55:35.330Z,3244
2016-04-20T09:56:35.348Z,3232
2016-04-20T09:57:35.366Z,3132
2016-04-20T09:58:35.400Z,3080
2016-04-20T09:59:35.434Z,2996
2016-04-20T10:00:35.468Z,3032
2016-04-20T10:01:35.486Z,3648
2016-04-20T10:02:35.535Z,4400
2016-04-20T10:03:35.538Z,4500
2016-04-20T10:04:35.572Z,3940
2016-04-20T10:05:35.575Z,3640
2016-04-20T10:06:35.500Z,3788
2016-04-20T10:07:35.642Z,3668
2016-04-20T10:08:35.661Z,4560
2016-04-20T10:09:35.695Z,4540
2016-04-20T10:10:35.761Z,3880
2016-04-20T10:11:35.795Z,3276
2016-04-20T10:12:35.781Z,3084
2016-04-20T10:13:35.800Z,2932
2016-04-20T10:14:35.834Z,2940
2016-04-20T10:15:35.853Z,3080
2016-04-20T10:16:35.902Z,3476
2016-04-20T10:17:35.920Z,4072
2016-04-20T10:18:35.939Z,4500
2016-04-20T10:19:35.972Z,4344
2016-04-20T10:20:36.006Z,3972
2016-04-20T10:21:36.025Z,3608
2016-04-20T10:22:36.027Z,3764
2016-04-20T10:23:36.061Z,3760
2016-04-20T10:24:36.095Z,3428
2016-04-20T10:25:36.129Z,3328
2016-04-20T10:26:36.147Z,3392
2016-04-20T10:27:36.196Z,3236
2016-04-20T10:28:36.215Z,3092
2016-04-20T10:29:36.218Z,3400
2016-04-20T10:30:36.252Z,3824
2016-04-20T10:31:36.285Z,3908
2016-04-20T10:32:36.320Z,3972
2016-04-20T10:33:36.354Z,3804
2016-04-20T10:34:36.372Z,3720
2016-04-20T10:35:36.422Z,3552
2016-04-20T10:36:36.409Z,3276
2016-04-20T10:37:36.426Z,3124
2016-04-20T10:38:36.461Z,3196
2016-04-20T10:39:36.495Z,3052
2016-04-20T10:40:36.512Z,3020
2016-04-20T10:41:36.579Z,2956
2016-04-20T10:42:36.581Z,2936
2016-04-20T10:43:36.646Z,2948
2016-04-20T10:44:36.633Z,3060
2016-04-20T10:45:36.667Z,3052
2016-04-20T10:46:36.686Z,2876
2016-04-20T10:47:36.720Z,3024
2016-04-20T10:48:36.738Z,3184
2016-04-20T10:49:36.022Z,3120
2016-04-20T10:50:36.789Z,2940
2016-04-20T10:51:36.808Z,2916
2016-04-20T10:52:36.858Z,3072
2016-04-20T10:53:36.876Z,3204
2016-04-20T10:54:36.910Z,3192
2016-04-20T10:55:36.928Z,3192
2016-04-20T10:56:36.947Z,3000
2016-04-20T10:57:37.012Z,2864
2016-04-20T10:58:36.999Z,2864
2016-04-20T10:59:37.032Z,2912
2016-04-20T11:00:37.066Z,3004
2016-04-20T11:01:37.101Z,2988
2016-04-20T11:02:37.135Z,2892
2016-04-20T11:03:37.138Z,2920
2016-04-20T11:04:37.187Z,2984
2016-04-20T11:05:37.190Z,3132
2016-04-20T11:06:37.223Z,3284
2016-04-20T11:07:37.257Z,3112
2016-04-20T11:08:37.276Z,2868
2016-04-20T11:09:37.310Z,2788
2016-04-20T11:10:37.328Z,2784
2016-04-20T11:11:37.362Z,2840
2016-04-20T11:12:37.381Z,2916
2016-04-20T11:13:37.415Z,3080
2016-04-20T11:14:37.433Z,3084
2016-04-20T11:15:37.467Z,2804
2016-04-20T11:16:37.500Z,2732
2016-04-20T11:17:37.519Z,2664
2016-04-20T11:18:37.537Z,2728
2016-04-20T11:19:37.587Z,2764
2016-04-20T11:20:37.606Z,2652
2016-04-20T11:21:37.639Z,2616
2016-04-20T11:22:37.986Z,2624
2016-04-20T11:23:38.097Z,2592
2016-04-20T11:24:37.741Z,2552
2016-04-20T11:25:37.744Z,2604
2016-04-20T11:26:37.761Z,2644
2016-04-20T11:27:37.811Z,2648
2016-04-20T11:28:37.813Z,2636
2016-04-20T11:29:37.848Z,2644
2016-04-20T11:30:37.866Z,2604
2016-04-20T11:31:37.900Z,2600
2016-04-20T11:32:37.919Z,2600
2016-04-20T11:33:37.953Z,2628
2016-04-20T11:34:37.987Z,2624
2016-04-20T11:35:37.865Z,2608
2016-04-20T11:36:38.038Z,2592
2016-04-20T11:37:38.073Z,2596
2016-04-20T11:38:38.091Z,2584
2016-04-20T11:39:37.985Z,2572
2016-04-20T11:40:38.143Z,2592
2016-04-20T11:41:37.896Z,2620
2016-04-20T11:42:38.195Z,2652
2016-04-20T11:43:38.214Z,2656
2016-04-20T11:44:38.278Z,2628
2016-04-20T11:45:38.298Z,2612
2016-04-20T11:46:38.331Z,2608
2016-04-20T11:47:38.317Z,2604
2016-04-20T11:48:38.353Z,2616
2016-04-20T11:49:38.402Z,2616
2016-04-20T11:50:38.420Z,2576
2016-04-20T11:51:38.486Z,2552
2016-04-20T11:52:38.488Z,2564
2016-04-20T11:53:38.522Z,2584
2016-04-20T11:54:38.541Z,2596
2016-04-20T11:55:38.558Z,2600
2016-04-20T11:56:38.592Z,2588
2016-04-20T11:57:38.657Z,2592
2016-04-20T11:58:38.644Z,2616
2016-04-20T11:59:38.648Z,2616
2016-04-20T12:00:38.697Z,2608
2016-04-20T12:01:38.700Z,2588
2016-04-20T12:02:38.749Z,2568
2016-04-20T12:03:38.767Z,2556
2016-04-20T12:04:38.785Z,2564
2016-04-20T12:05:38.914Z,2544
2016-04-20T12:06:38.854Z,2552
2016-04-20T12:07:38.872Z,2548
2016-04-20T12:08:38.906Z,2540
2016-04-20T12:09:38.956Z,2532
2016-04-20T12:10:38.973Z,2508
2016-04-20T12:11:38.992Z,2496
2016-04-20T12:12:38.996Z,2480
2016-04-20T12:13:39.029Z,2492
2016-04-20T12:14:39.063Z,2500
2016-04-20T12:15:39.112Z,2500
2016-04-20T12:16:39.114Z,2500
2016-04-20T12:17:39.134Z,2488
2016-04-20T12:18:39.184Z,2492
2016-04-20T12:19:39.186Z,2476
2016-04-20T12:20:39.282Z,2452
2016-04-20T12:21:39.269Z,2444
2016-04-20T12:22:39.116Z,2452
2016-04-20T12:23:39.290Z,2464
2016-04-20T12:24:39.355Z,2460
2016-04-20T12:25:39.342Z,2460
2016-04-20T12:26:39.407Z,2456
2016-04-20T12:27:39.879Z,2448
2016-04-20T12:28:39.428Z,2448
2016-04-20T12:29:39.447Z,2468
2016-04-20T12:30:39.496Z,2496
2016-04-20T12:31:39.531Z,2496
2016-04-20T12:32:39.548Z,2480
2016-04-20T12:33:39.582Z,2476
2016-04-20T12:34:39.616Z,2484
2016-04-20T12:35:39.666Z,2464
2016-04-20T12:36:39.638Z,2452
2016-04-20T12:37:39.672Z,2432
2016-04-20T12:38:39.690Z,2420
2016-04-20T12:39:39.740Z,2408
2016-04-20T12:40:39.743Z,2408
2016-04-20T12:41:39.793Z,2404
2016-04-20T12:42:39.638Z,2396
2016-04-20T12:43:39.812Z,2412
2016-04-20T12:44:39.862Z,2424
2016-04-20T12:45:39.881Z,2428
2016-04-20T12:46:39.915Z,2428
2016-04-20T12:47:39.918Z,2428
2016-04-20T12:48:39.982Z,2416
2016-04-20T12:49:39.985Z,2424
2016-04-20T12:50:40.081Z,2424
2016-04-20T12:51:40.022Z,2416
2016-04-20T12:52:40.056Z,2388
2016-04-20T12:53:40.089Z,2380
2016-04-20T12:54:40.108Z,2392
2016-04-20T12:55:40.126Z,2360
2016-04-20T12:56:40.161Z,2348
2016-04-20T12:57:40.210Z,2340
2016-04-20T12:58:40.228Z,2344
2016-04-20T12:59:40.247Z,2340
2016-04-20T13:00:40.311Z,2352
2016-04-20T13:01:40.298Z,2352
2016-04-20T13:02:40.316Z,2348
2016-04-20T13:03:40.367Z,2340
2016-04-20T13:04:40.385Z,2364
2016-04-20T13:05:40.435Z,2348
2016-04-20T13:06:40.452Z,2336
2016-04-20T13:07:40.455Z,2336
2016-04-20T13:08:40.474Z,2328
2016-04-20T13:09:40.524Z,2324
2016-04-20T13:10:40.541Z,2316
2016-04-20T13:11:40.575Z,2320
2016-04-20T13:12:40.593Z,2308
2016-04-20T13:13:40.674Z,2308
2016-04-20T13:14:40.631Z,2304
2016-04-20T13:15:40.665Z,2288
2016-04-20T13:16:40.714Z,2272
2016-04-20T13:17:40.732Z,2256
2016-04-20T13:18:40.751Z,2240
2016-04-20T13:19:40.784Z,2240
2016-04-20T13:20:40.834Z,2224
2016-04-20T13:21:40.868Z,2200
2016-04-20T13:22:40.855Z,2208
2016-04-20T13:23:40.873Z,2228
2016-04-20T13:24:40.907Z,2248
2016-04-20T13:25:40.941Z,2252
2016-04-20T13:26:40.975Z,2240
2016-04-20T13:27:41.009Z,2228
2016-04-20T13:28:41.012Z,2208
2016-04-20T13:29:41.092Z,2184
2016-04-20T13:30:41.095Z,2160
2016-04-20T13:31:41.113Z,2152
2016-04-20T13:32:41.133Z,2136
2016-04-20T13:33:41.150Z,2136
2016-04-20T13:34:41.169Z,2144
2016-04-20T13:35:41.265Z,2132
2016-04-20T13:36:40.471Z,2116
2016-04-20T13:37:41.301Z,2124
2016-04-20T13:38:41.305Z,2116
2016-04-20T13:39:41.307Z,2112
2016-04-20T13:40:41.341Z,2100
2016-04-20T13:41:41.360Z,2104
2016-04-20T13:42:41.377Z,2108
2016-04-20T13:43:41.426Z,2084
2016-04-20T13:44:41.462Z,2080
2016-04-20T13:45:41.464Z,2068
2016-04-20T13:46:41.498Z,2052
2016-04-20T13:47:41.531Z,2044
2016-04-20T13:48:41.551Z,2040
2016-04-20T13:49:41.568Z,2040
2016-04-20T13:50:41.603Z,2024
2016-04-20T13:51:41.636Z,2024
2016-04-20T13:52:41.671Z,2028
2016-04-20T13:53:41.689Z,2016
2016-04-20T13:54:41.706Z,2000
2016-04-20T13:55:41.741Z,1988
2016-04-20T13:56:41.775Z,1976
2016-04-20T13:57:41.777Z,1964
2016-04-20T13:58:41.812Z,1952
2016-04-20T13:59:41.830Z,1944
2016-04-20T14:00:41.864Z,1924
2016-04-20T14:01:41.883Z,1908
2016-04-20T14:02:42.119Z,1900
2016-04-20T14:03:41.950Z,1888
2016-04-20T14:04:41.968Z,1872
2016-04-20T14:05:41.986Z,1852
2016-04-20T14:06:42.020Z,1848
2016-04-20T14:07:42.055Z,1832
2016-04-20T14:08:42.088Z,1832
2016-04-20T14:09:42.107Z,1816
2016-04-20T14:10:42.125Z,1820
2016-04-20T14:11:42.174Z,1824
2016-04-20T14:12:42.193Z,1832
2016-04-20T14:13:42.211Z,1812
2016-04-20T14:14:42.230Z,1792
2016-04-20T14:15:42.263Z,1780
2016-04-20T14:16:42.281Z,1768
2016-04-20T14:17:42.315Z,1768
2016-04-20T14:18:42.349Z,1756
2016-04-20T14:19:42.368Z,1748
2016-04-20T14:20:42.652Z,1740
2016-04-20T14:21:42.436Z,1724
2016-04-20T14:22:42.440Z,1716
2016-04-20T14:23:42.473Z,1716
2016-04-20T14:24:42.476Z,1712
2016-04-20T14:25:42.557Z,1732
2016-04-20T14:26:42.544Z,1724
2016-04-20T14:27:42.562Z,1724
2016-04-20T14:28:42.596Z,1716
2016-04-20T14:29:42.615Z,1700
2016-04-20T14:30:42.649Z,1692
2016-04-20T14:31:42.682Z,1688
2016-04-20T14:32:42.700Z,1692
2016-04-20T14:33:42.719Z,1688
2016-04-20T14:34:42.737Z,1676
2016-04-20T14:35:42.803Z,1680
2016-04-20T14:36:42.789Z,1668
2016-04-20T14:37:42.901Z,1668
2016-04-20T14:38:42.858Z,1668
2016-04-20T14:39:42.861Z,1672
2016-04-20T14:40:42.909Z,1664
2016-04-20T14:41:42.912Z,1656
2016-04-20T14:42:42.947Z,1644
2016-04-20T14:43:42.964Z,1636
2016-04-20T14:44:42.999Z,1608
2016-04-20T14:45:43.017Z,1596
2016-04-20T14:46:43.051Z,1592
2016-04-20T14:47:43.085Z,1580
2016-04-20T14:48:43.119Z,1584
2016-04-20T14:49:43.122Z,1572
2016-04-20T14:50:43.140Z,1564
2016-04-20T14:51:43.174Z,1552
2016-04-20T14:52:43.191Z,1556
2016-04-20T14:53:43.226Z,1556
2016-04-20T14:54:43.244Z,1560
2016-04-20T14:55:43.310Z,1560
2016-04-20T14:56:43.296Z,1572
2016-04-20T14:57:43.362Z,1572
2016-04-20T14:58:43.365Z,1576
2016-04-20T14:59:43.415Z,1564
2016-04-20T15:00:43.432Z,1552
2016-04-20T15:01:43.435Z,1540
2016-04-20T15:02:43.468Z,1536
2016-04-20T15:03:43.471Z,1536
2016-04-20T15:04:43.520Z,1528
2016-04-20T15:05:43.523Z,1536
2016-04-20T15:06:43.573Z,1536
2016-04-20T15:07:57.686Z,1516
2016-04-20T15:08:43.642Z,1508
2016-04-20T15:09:43.629Z,1508
2016-04-20T15:10:43.662Z,1516
2016-04-20T15:11:43.665Z,1516
2016-04-20T15:12:43.714Z,1488
2016-04-20T15:13:43.733Z,1488
2016-04-20T15:14:43.735Z,1476
2016-04-20T15:15:43.785Z,1464
2016-04-20T15:16:43.803Z,1464
2016-04-20T15:17:43.837Z,1452
2016-04-20T15:18:43.855Z,1448
2016-04-20T15:19:43.889Z,1440
2016-04-20T15:20:43.939Z,1448
2016-04-20T15:21:43.926Z,1444
2016-04-20T15:22:43.944Z,1452
2016-04-20T15:23:43.963Z,1444
2016-04-20T15:24:44.012Z,1444
2016-04-20T15:25:44.030Z,1436
2016-04-20T15:26:44.065Z,1416
2016-04-20T15:27:44.067Z,1412
2016-04-20T15:28:44.118Z,1400
2016-04-20T15:29:44.104Z,1392
2016-04-20T15:30:44.138Z,1388
2016-04-20T15:31:44.171Z,1376
2016-04-20T15:32:44.284Z,1368
2016-04-20T15:33:44.209Z,1372
2016-04-20T15:34:44.242Z,1364
2016-04-20T15:35:44.292Z,1348
2016-04-20T15:36:44.283Z,1360
2016-04-20T15:37:44.333Z,1344
2016-04-20T15:38:44.352Z,1320
2016-04-20T15:39:44.385Z,1324
2016-04-20T15:40:44.389Z,1316
2016-04-20T15:41:44.406Z,1308
2016-04-20T15:42:44.456Z,1304
2016-04-20T15:43:44.459Z,1300
2016-04-20T15:44:44.525Z,1300
2016-04-20T15:45:44.542Z,1284
2016-04-20T15:46:44.545Z,1272
2016-04-20T15:47:44.564Z,1256
2016-04-20T15:48:44.442Z,1248
2016-04-20T15:49:44.444Z,1248
2016-04-20T15:50:44.666Z,1240
2016-04-20T15:51:44.558Z,1248
2016-04-20T15:52:44.686Z,1252
2016-04-20T15:53:44.721Z,1256
2016-04-20T15:54:44.754Z,1248
2016-04-20T15:55:44.757Z,1240
2016-04-20T15:56:44.790Z,1232
2016-04-20T15:57:44.824Z,1228
2016-04-20T15:58:44.849Z,1224
2016-04-20T15:59:44.955Z,1228
2016-04-20T16:00:45.000Z,1208
2016-04-20T16:01:45.060Z,1208
2016-04-20T16:02:45.187Z,1196
2016-04-20T16:03:45.161Z,1184
2016-04-20T16:04:45.078Z,1192
2016-04-20T16:06:47.910Z,1160
2016-04-20T16:07:00.582Z,1152
2016-04-20T16:08:00.613Z,1148
2016-04-20T16:09:00.652Z,1144
2016-04-20T16:10:00.723Z,1144
2016-04-20T16:11:00.746Z,1136
2016-04-20T16:12:00.599Z,1132
2016-04-20T16:13:00.964Z,1120
2016-04-20T16:14:00.782Z,1116
2016-04-20T16:15:00.818Z,1128
2016-04-20T16:16:00.839Z,1136
2016-04-20T16:17:01.482Z,1132
2016-04-20T16:18:00.893Z,1096
2016-04-20T16:19:00.929Z,1052
2016-04-20T16:20:00.947Z,956
2016-04-20T16:21:00.967Z,796
2016-04-20T16:22:01.032Z,656
2016-04-20T16:23:01.005Z,572
2016-04-20T16:24:01.054Z,516
2016-04-20T16:25:01.088Z,484
2016-04-20T16:26:01.123Z,456
2016-04-20T16:27:01.126Z,440
2016-04-20T16:28:01.160Z,428
2016-04-20T16:29:01.178Z,420
2016-04-20T16:30:01.181Z,408
2016-04-20T16:31:01.216Z,400
2016-04-20T16:32:01.296Z,396
2016-04-20T16:33:01.377Z,388
2016-04-20T16:34:01.191Z,380
2016-04-20T16:35:01.398Z,376
2016-04-20T16:36:01.432Z,368
2016-04-20T16:37:01.528Z,368
2016-04-20T16:38:01.577Z,360
2016-04-20T16:39:01.471Z,360
2016-04-20T16:40:01.427Z,360
2016-04-20T16:41:01.476Z,356
2016-04-20T16:42:01.479Z,356
2016-04-20T16:43:01.498Z,352
2016-04-20T16:44:01.531Z,352
2016-04-20T16:45:01.534Z,352
2016-04-20T16:46:01.553Z,344
2016-04-20T16:47:01.586Z,344
2016-04-20T16:48:01.620Z,340
2016-04-20T16:49:01.623Z,380
2016-04-20T16:50:01.642Z,572
2016-04-20T16:51:01.676Z,452
2016-04-20T16:52:01.694Z,332
2016-04-20T16:53:01.697Z,316
2016-04-20T16:54:01.745Z,312
2016-04-20T16:55:01.748Z,308
2016-04-20T16:56:01.767Z,304
2016-04-20T16:57:01.800Z,300
2016-04-20T16:58:01.819Z,296
2016-04-20T16:59:01.838Z,292
2016-04-20T17:00:01.887Z,288
2016-04-20T17:01:01.858Z,324
2016-04-20T17:02:01.908Z,364
2016-04-20T17:03:01.926Z,320
2016-04-20T17:04:01.944Z,276
2016-04-20T17:05:01.963Z,328
2016-04-20T17:06:01.982Z,324
2016-04-20T17:07:01.999Z,316
2016-04-20T17:08:02.018Z,264
2016-04-20T17:09:02.052Z,272
2016-04-20T17:10:01.929Z,284
2016-04-20T17:11:02.104Z,316
2016-04-20T17:12:02.123Z,284
2016-04-20T17:13:02.141Z,268
2016-04-20T17:14:02.159Z,304
2016-04-20T17:15:02.177Z,384
2016-04-20T17:16:02.196Z,436
2016-04-20T17:17:02.230Z,408
2016-04-20T17:18:02.279Z,232
2016-04-20T17:19:02.266Z,212
2016-04-20T17:20:02.284Z,220
2016-04-20T17:21:02.303Z,348
2016-04-20T17:22:02.353Z,424
2016-04-20T17:23:02.340Z,292
2016-04-20T17:24:02.373Z,252
2016-04-20T17:25:02.392Z,196
2016-04-20T17:26:02.411Z,184
2016-04-20T17:27:02.428Z,184
2016-04-20T17:28:02.446Z,176
2016-04-20T17:29:02.496Z,168
2016-04-20T17:30:02.484Z,168
2016-04-20T17:31:02.502Z,160
2016-04-20T17:32:02.535Z,156
2016-04-20T17:33:02.570Z,152
2016-04-20T17:34:02.572Z,152
2016-04-20T17:35:02.575Z,144
2016-04-20T17:36:02.609Z,140
2016-04-20T17:37:02.658Z,140
2016-04-20T17:38:02.708Z,136
2016-04-20T17:39:02.695Z,128
2016-04-20T17:40:02.698Z,124
2016-04-20T17:41:02.701Z,124
2016-04-20T17:42:02.719Z,120
2016-04-20T17:43:02.738Z,116
2016-04-20T17:44:02.755Z,112
2016-04-20T17:45:02.805Z,108
2016-04-20T17:46:02.824Z,104
2016-04-20T17:47:02.842Z,100
2016-04-20T17:48:02.860Z,96
2016-04-20T17:49:02.893Z,92
2016-04-20T17:50:02.897Z,92
2016-04-20T17:51:02.915Z,84
2016-04-20T17:52:02.996Z,84
2016-04-20T17:53:03.092Z,80
2016-04-20T17:54:06.929Z,72
2016-04-20T17:55:02.979Z,72
2016-04-20T17:56:03.012Z,68
2016-04-20T17:57:03.062Z,60
2016-04-20T17:58:03.034Z,60
2016-04-20T17:59:03.067Z,56
2016-04-20T18:00:03.101Z,52
2016-04-20T18:01:03.119Z,52
2016-04-20T18:02:03.137Z,48
2016-04-20T18:03:03.140Z,44
2016-04-20T18:04:03.236Z,44
2016-04-20T18:05:03.225Z,40
2016-04-20T18:06:03.195Z,36
2016-04-20T18:07:03.056Z,32
2016-04-20T18:08:03.230Z,28
2016-04-20T18:09:02.515Z,28
2016-04-20T18:10:03.283Z,24
2016-04-20T18:11:03.300Z,24
2016-04-20T18:12:03.351Z,24
2016-04-20T18:13:03.337Z,16
2016-04-20T18:14:03.355Z,16
2016-04-20T18:15:03.514Z,12
2016-04-20T18:16:03.408Z,16
2016-04-20T18:17:03.415Z,12
2016-04-20T18:18:03.433Z,8
2016-04-20T18:19:03.435Z,8
2016-04-20T18:20:03.469Z,8
2016-04-20T18:21:03.488Z,8
2016-04-20T18:22:03.526Z,8
2016-04-20T18:23:03.514Z,8
2016-04-20T18:24:03.548Z,4
2016-04-20T18:25:03.566Z,4
2016-04-20T18:26:03.568Z,4
2016-04-20T18:27:03.494Z,4
2016-04-20T18:28:03.621Z,4
2016-04-20T18:29:03.655Z,0
2016-04-20T18:30:03.502Z,0
2016-04-20T18:31:03.660Z,4
2016-04-20T18:32:03.678Z,4
2016-04-20T18:33:03.713Z,0
2016-04-20T18:34:02.949Z,0
2016-04-20T18:35:03.733Z,0
2016-04-20T18:36:03.611Z,0
2016-04-20T18:37:03.646Z,0
2016-04-20T18:38:03.788Z,0
2016-04-20T18:39:03.807Z,0
2016-04-20T18:40:03.841Z,0
2016-04-20T18:41:03.860Z,0
2016-04-20T18:42:03.862Z,0
2016-04-20T18:43:03.896Z,0
2016-04-20T18:44:03.914Z,0
2016-04-20T18:45:03.917Z,0
2016-04-20T18:46:03.934Z,0
2016-04-20T18:47:03.204Z,0
2016-04-20T18:48:04.003Z,0
2016-04-20T18:49:04.037Z,0
2016-04-20T18:50:04.008Z,0
2016-04-20T18:51:04.026Z,0
2016-04-20T18:52:03.763Z,0
2016-04-20T18:53:04.079Z,0
2016-04-20T18:54:04.081Z,0
2016-04-20T18:55:04.131Z,0
2016-04-20T18:56:04.181Z,0
2016-04-20T18:57:04.152Z,0
2016-04-20T18:58:04.155Z,0
2016-04-20T18:59:04.173Z,0
2016-04-20T19:00:04.019Z,0
2016-04-20T19:01:04.211Z,0
2016-04-20T19:02:04.244Z,0
2016-04-20T19:03:04.090Z,0
2016-04-20T19:04:04.264Z,0
2016-04-20T19:05:04.299Z,0
2016-04-20T19:06:04.302Z,0
2016-04-20T19:07:04.336Z,0
2016-04-20T19:08:04.337Z,0
2016-04-20T19:09:04.340Z,0
2016-04-20T19:10:04.359Z,0
2016-04-20T19:11:04.408Z,0
2016-04-20T19:12:04.395Z,0
2016-04-20T19:13:04.414Z,0
2016-04-20T19:14:04.432Z,0
2016-04-20T19:15:04.466Z,0
2016-04-20T19:16:04.469Z,0
2016-04-20T19:17:04.518Z,0
2016-04-20T19:18:04.520Z,0
2016-04-20T19:19:04.554Z,0
2016-04-20T19:20:04.870Z,0
2016-04-20T19:21:04.560Z,0
2016-04-20T19:22:04.595Z,0
2016-04-20T19:23:04.597Z,0
2016-04-20T19:24:04.615Z,0
2016-04-20T19:25:04.633Z,0
2016-04-20T19:26:04.652Z,0
2016-04-20T19:27:04.686Z,0
2016-04-20T19:28:04.689Z,0
2016-04-20T19:29:04.706Z,0
2016-04-20T19:30:04.725Z,0
2016-04-20T19:31:04.728Z,0
2016-04-20T19:32:04.761Z,0
2016-04-20T19:33:04.765Z,0
2016-04-20T19:34:04.767Z,0
2016-04-20T19:35:04.801Z,0
2016-04-20T19:36:04.819Z,0
2016-04-20T19:37:04.822Z,0
2016-04-20T19:38:04.855Z,0
2016-04-20T19:39:04.875Z,0
2016-04-20T19:40:04.893Z,0
2016-04-20T19:41:04.911Z,0
2016-04-20T19:42:04.930Z,0
2016-04-20T19:43:04.932Z,0
2016-04-20T19:44:04.951Z,0
2016-04-20T19:45:04.968Z,0
2016-04-20T19:46:05.002Z,0
2016-04-20T19:47:05.005Z,0
2016-04-20T19:48:05.040Z,0
2016-04-20T19:49:05.042Z,0
2016-04-20T19:50:05.045Z,0
2016-04-20T19:51:05.079Z,0
2016-04-20T19:52:05.097Z,0
2016-04-20T19:53:05.100Z,0
2016-04-20T19:54:05.133Z,0
2016-04-20T19:55:05.151Z,0
2016-04-20T19:56:05.186Z,0
2016-04-20T19:57:05.189Z,0
2016-04-20T19:58:05.191Z,0
2016-04-20T19:59:05.209Z,0
2016-04-20T20:00:05.228Z,0
2016-04-20T20:01:05.247Z,0
2016-04-20T20:02:05.280Z,0
2016-04-20T20:03:05.283Z,0
2016-04-20T20:04:05.285Z,0
2016-04-20T20:05:05.289Z,0
2016-04-20T20:06:05.322Z,0
2016-04-20T20:07:05.356Z,0
2016-04-20T20:08:05.358Z,0
2016-04-20T20:09:05.393Z,0
2016-04-20T20:10:05.410Z,0
2016-04-20T20:11:05.398Z,0
2016-04-20T20:12:05.417Z,0
2016-04-20T20:13:05.449Z,0
2016-04-20T20:14:05.468Z,0
2016-04-20T20:15:05.471Z,0
2016-04-20T20:16:05.490Z,0
2016-04-20T20:17:05.555Z,0
2016-04-20T20:18:05.542Z,0
2016-04-20T20:19:05.545Z,0
2016-04-20T20:20:05.548Z,0
2016-04-20T20:21:05.581Z,0
2016-04-20T20:22:05.594Z,0
2016-04-20T20:23:05.386Z,0
2016-04-20T20:24:05.670Z,0
2016-04-20T20:25:05.656Z,0
2016-04-20T20:26:05.644Z,0
2016-04-20T20:27:05.661Z,0
2016-04-20T20:28:05.697Z,0
2016-04-20T20:29:05.714Z,0
2016-04-20T20:30:04.966Z,0
2016-04-20T20:31:05.751Z,0
2016-04-20T20:32:05.753Z,0
2016-04-20T20:33:05.772Z,0
2016-04-20T20:34:05.790Z,0
2016-04-20T20:35:05.808Z,0
2016-04-20T20:36:05.811Z,0
2016-04-20T20:37:05.829Z,0
2016-04-20T20:38:05.833Z,0
2016-04-20T20:39:06.554Z,0
2016-04-20T20:40:05.884Z,0
2016-04-20T20:41:05.887Z,0
2016-04-20T20:42:05.921Z,0
2016-04-20T20:43:05.923Z,0
2016-04-20T20:44:05.926Z,0
2016-04-20T20:45:05.960Z,0
2016-04-20T20:46:05.978Z,0
2016-04-20T20:47:05.982Z,0
2016-04-20T20:48:06.000Z,0
2016-04-20T20:49:06.017Z,0
2016-04-20T20:50:06.021Z,0
2016-04-20T20:51:06.054Z,0
2016-04-20T20:52:06.072Z,0
2016-04-20T20:53:06.075Z,0
2016-04-20T20:54:06.110Z,0
2016-04-20T20:55:06.128Z,0
2016-04-20T20:56:06.147Z,0
2016-04-20T20:57:06.227Z,0
2016-04-20T20:58:06.198Z,0
2016-04-20T20:59:06.169Z,0
2016-04-20T21:00:08.736Z,0
2016-04-20T21:01:06.222Z,0
2016-04-20T21:02:06.257Z,0
2016-04-20T21:03:06.228Z,0
2016-04-20T21:04:06.263Z,0
2016-04-20T21:05:06.265Z,0
2016-04-20T21:06:06.284Z,0
2016-04-20T21:07:06.333Z,0
2016-04-20T21:08:06.336Z,0
2016-04-20T21:09:06.353Z,0
2016-04-20T21:10:06.341Z,0
2016-04-20T21:11:06.376Z,0
2016-04-20T21:12:06.393Z,0
2016-04-20T21:13:06.396Z,0
2016-04-20T21:14:06.430Z,0
2016-04-20T21:15:06.417Z,0
2016-04-20T21:16:06.467Z,0
2016-04-20T21:17:06.469Z,0
2016-04-20T21:18:06.488Z,0
2016-04-20T21:19:06.506Z,0
2016-04-20T21:20:06.493Z,0
2016-04-20T21:21:06.511Z,0
2016-04-20T21:22:06.560Z,0
2016-04-20T21:23:06.563Z,0
2016-04-20T21:24:06.582Z,0
2016-04-20T21:25:06.569Z,0
2016-04-20T21:26:06.602Z,0
2016-04-20T21:27:06.621Z,0
2016-04-20T21:28:06.624Z,0
2016-04-20T21:29:06.643Z,0
2016-04-20T21:30:06.692Z,0
2016-04-20T21:31:06.679Z,0
2016-04-20T21:32:06.682Z,0
2016-04-20T21:33:06.715Z,0
2016-04-20T21:34:06.718Z,0
2016-04-20T21:35:06.737Z,0
2016-04-20T21:36:06.739Z,0
2016-04-20T21:37:06.773Z,0
2016-04-20T21:38:06.792Z,0
2016-04-20T21:39:06.810Z,0
2016-04-20T21:40:06.813Z,0
2016-04-20T21:41:06.831Z,0
2016-04-20T21:42:06.849Z,0
2016-04-20T21:43:06.836Z,0
2016-04-20T21:44:06.870Z,0
2016-04-20T21:45:06.873Z,0
2016-04-20T21:46:06.906Z,0
2016-04-20T21:47:06.909Z,0
2016-04-20T21:48:06.943Z,0
2016-04-20T21:49:06.930Z,0
2016-04-20T21:50:06.964Z,0
2016-04-20T21:51:06.999Z,0
2016-04-20T21:52:07.767Z,0
2016-04-20T21:53:07.019Z,0
2016-04-20T21:54:07.022Z,0
2016-04-20T21:55:07.041Z,0
2016-04-20T21:56:07.043Z,0
2016-04-20T21:57:07.061Z,0
2016-04-20T21:58:07.079Z,0
2016-04-20T21:59:07.098Z,0
2016-04-20T22:00:08.444Z,0
2016-04-20T22:01:09.071Z,0
2016-04-20T22:02:09.122Z,0
2016-04-20T22:03:08.623Z,0
2016-04-20T22:04:08.799Z,0
2016-04-20T22:05:08.708Z,0
2016-04-20T22:06:07.210Z,0
2016-04-20T22:07:07.229Z,0
2016-04-20T22:08:07.215Z,0
2016-04-20T22:09:07.250Z,0
2016-04-20T22:10:07.268Z,0
2016-04-20T22:11:07.270Z,0
2016-04-20T22:12:07.289Z,0
2016-04-20T22:13:07.291Z,0
2016-04-20T22:14:07.311Z,0
2016-04-20T22:15:07.375Z,0